Time;durP1;ratioP1;P1;durP2;ratioP2;P2;SDS_P1;SDS_P2;PMS_P1;PMS_P2;Temp;Humidity;BMP_temperature;BMP_pressure;BME280_temperature;BME280_humidity;BME280_pressure;Samples;Min_cycle;Max_cycle;Signal;HPM_P1;HPM_P2
2022/10/22 00:11:19;;;;;;;15.50;10.50;;;;;;;9.42;73.06;98367.84;422642;1296;96203;-40
2022/10/22 00:21:24;;;;;;;14.20;8.40;;;;;;;9.30;72.94;98357.14;422236;1288;96019;-40
2022/10/22 00:31:28;;;;;;;11.30;8.50;;;;;;;9.26;72.91;98348.96;422198;1295;107335;-41
2022/10/22 00:41:32;;;;;;;17.30;11.40;;;;;;;9.18;73.09;98342.70;422277;1295;96140;-40
2022/10/22 00:51:36;;;;;;;18.60;12.20;;;;;;;9.02;72.98;98341.41;422359;1288;96241;-40
2022/10/22 01:01:39;;;;;;;22.40;12.10;;;;;;;8.85;73.19;98346.90;422104;1295;108616;-40
2022/10/22 01:11:44;;;;;;;12.10;8.70;;;;;;;8.74;73.16;98337.15;422052;1274;96291;-40
2022/10/22 01:21:55;;;;;;;14.60;9.20;;;;;;;8.75;73.36;98336.73;421117;1295;107962;-40
2022/10/22 01:32:03;;;;;;;14.00;10.30;;;;;;;8.80;73.41;98330.77;420834;1298;107553;-40
2022/10/22 01:42:07;;;;;;;15.20;11.10;;;;;;;8.77;73.59;98332.30;421134;1292;96203;-41
2022/10/22 01:52:24;;;;;;;16.20;10.40;;;;;;;8.69;73.61;98330.45;420609;1306;194184;-41
2022/10/22 02:02:28;;;;;;;13.10;9.30;;;;;;;8.64;73.67;98310.62;420771;1298;108249;-41
2022/10/22 02:12:33;;;;;;;20.00;10.30;;;;;;;8.66;73.74;98308.52;421203;1298;96147;-41
2022/10/22 02:22:38;;;;;;;22.50;13.10;;;;;;;8.64;73.80;98306.92;420816;1306;108588;-40
2022/10/22 02:32:49;;;;;;;23.00;13.10;;;;;;;8.50;73.88;98317.38;421034;1299;108215;-41
2022/10/22 02:42:53;;;;;;;17.20;11.50;;;;;;;8.44;74.06;98320.42;420825;1298;95555;-41
2022/10/22 02:52:57;;;;;;;17.50;10.20;;;;;;;8.44;74.10;98301.08;420945;1295;108934;-39
2022/10/22 03:03:01;;;;;;;17.90;10.50;;;;;;;8.45;74.20;98305.36;420878;1292;108237;-39
2022/10/22 03:13:05;;;;;;;18.90;12.10;;;;;;;8.38;74.40;98323.27;421148;1298;95545;-41
2022/10/22 03:23:10;;;;;;;15.60;11.10;;;;;;;8.31;74.43;98333.86;420855;1285;96171;-40
2022/10/22 03:33:14;;;;;;;14.50;10.30;;;;;;;8.28;74.51;98315.25;421065;1298;106738;-40
2022/10/22 03:43:18;;;;;;;20.30;11.10;;;;;;;8.32;74.73;98310.23;421325;1297;96146;-42
2022/10/22 03:53:21;;;;;;;17.80;10.40;;;;;;;8.38;74.67;98310.37;421089;1298;107258;-39
2022/10/22 04:03:25;;;;;;;24.00;13.70;;;;;;;8.46;74.98;98326.27;420967;1298;96163;-40
2022/10/22 04:13:30;;;;;;;21.60;13.80;;;;;;;8.50;75.11;98313.30;421027;1286;96543;-39
2022/10/22 04:23:33;;;;;;;19.30;13.70;;;;;;;8.50;75.11;98297.51;421185;1283;107067;-40
2022/10/22 04:33:38;;;;;;;14.20;9.30;;;;;;;8.45;75.02;98289.63;420869;1305;96559;-41
2022/10/22 04:43:42;;;;;;;16.00;10.60;;;;;;;8.43;75.13;98281.04;420950;1299;96133;-40
2022/10/22 04:53:46;;;;;;;16.70;11.40;;;;;;;8.43;75.16;98271.75;420762;1299;108327;-40
2022/10/22 05:13:58;;;;;;;27.60;14.70;;;;;;;8.32;75.43;98273.48;420877;1302;96188;-40
2022/10/22 05:24:02;;;;;;;21.50;12.40;;;;;;;8.30;75.45;98279.57;421109;1296;108509;-40
2022/10/22 05:34:06;;;;;;;27.30;14.30;;;;;;;8.37;75.38;98292.19;420996;1298;108614;-40
2022/10/22 05:44:10;;;;;;;29.90;13.40;;;;;;;8.37;75.54;98281.45;420847;1292;95937;-39
2022/10/22 05:54:14;;;;;;;27.80;16.30;;;;;;;8.36;75.78;98320.70;420788;1306;106854;-41
2022/10/22 06:04:18;;;;;;;24.40;15.60;;;;;;;8.39;75.78;98332.78;420935;1288;96840;-39
2022/10/22 06:14:22;;;;;;;26.30;13.90;;;;;;;8.44;75.61;98320.26;420965;1297;96140;-40
2022/10/22 06:24:26;;;;;;;28.40;14.90;;;;;;;8.69;75.88;98321.67;421037;1299;95753;-41
2022/10/22 06:34:29;;;;;;;25.20;15.70;;;;;;;9.09;75.95;98335.58;420953;1297;107641;-41
2022/10/22 06:44:33;;;;;;;24.00;16.30;;;;;;;9.56;75.93;98369.30;420851;1303;97547;-41
2022/10/22 06:54:37;;;;;;;29.10;18.10;;;;;;;9.78;75.85;98393.92;420709;1299;97940;-41
2022/10/22 07:04:40;;;;;;;24.60;16.30;;;;;;;9.93;75.84;98393.13;420475;1292;108561;-40
2022/10/22 07:14:44;;;;;;;23.30;13.10;;;;;;;10.21;75.54;98388.53;420822;1299;97482;-40
2022/10/22 07:24:47;;;;;;;18.50;12.60;;;;;;;10.71;75.46;98379.94;420944;1299;107700;-40
2022/10/22 07:34:51;;;;;;;19.90;12.90;;;;;;;11.37;75.44;98366.54;420753;1299;96696;-40
2022/10/22 07:44:55;;;;;;;21.40;12.10;;;;;;;11.45;75.10;98362.80;420829;1299;110023;-41
2022/10/22 07:54:58;;;;;;;29.00;14.50;;;;;;;11.40;75.03;98364.73;420942;1305;97870;-40
2022/10/22 08:05:02;;;;;;;22.00;12.10;;;;;;;11.42;74.90;98386.27;420981;1299;97494;-40
2022/10/22 08:15:08;;;;;;;16.40;10.40;;;;;;;11.62;74.91;98375.02;420919;1299;109458;-40
2022/10/22 08:25:14;;;;;;;23.40;13.80;;;;;;;11.84;74.93;98376.27;420558;1304;108794;-40
2022/10/22 08:35:18;;;;;;;22.10;13.60;;;;;;;11.94;74.89;98391.20;420737;1298;98179;-40
2022/10/22 08:45:29;;;;;;;17.60;12.80;;;;;;;11.93;74.85;98390.23;421018;1291;98644;-40
2022/10/22 09:05:41;;;;;;;20.40;13.80;;;;;;;12.25;74.71;98392.35;421052;1295;97950;-40
2022/10/22 09:15:48;;;;;;;21.50;14.10;;;;;;;12.49;74.61;98396.83;421195;1292;109158;-41
2022/10/22 09:25:52;;;;;;;19.40;13.90;;;;;;;12.62;74.46;98399.95;420723;1292;117474;-41
2022/10/22 09:46:04;;;;;;;17.40;13.40;;;;;;;12.89;74.02;98413.09;420738;1299;108756;-41
2022/10/22 09:56:16;;;;;;;24.30;13.10;;;;;;;13.03;74.11;98425.86;420760;1299;98568;-40
2022/10/22 10:06:22;;;;;;;35.10;18.30;;;;;;;13.12;74.11;98424.63;420726;1295;110378;-40
2022/10/22 10:16:32;;;;;;;22.20;13.80;;;;;;;13.14;74.08;98424.82;421791;1294;108367;-38
2022/10/22 10:26:43;;;;;;;23.90;15.60;;;;;;;13.04;73.90;98416.42;421514;1298;96747;-41
2022/10/22 10:36:48;;;;;;;20.00;13.80;;;;;;;12.95;73.78;98411.39;420738;1292;111146;-40
2022/10/22 10:46:52;;;;;;;25.00;13.50;;;;;;;12.92;73.91;98398.41;420689;1298;108685;-40
2022/10/22 10:56:57;;;;;;;23.10;14.70;;;;;;;12.99;73.92;98403.05;420817;1294;98593;-40
2022/10/22 11:07:06;;;;;;;22.80;15.00;;;;;;;13.02;73.95;98412.06;420912;1295;97886;-40
2022/10/22 11:17:21;;;;;;;22.20;14.10;;;;;;;13.05;73.94;98407.10;420943;1298;109978;-39
2022/10/22 11:27:29;;;;;;;20.50;14.20;;;;;;;13.12;73.81;98394.10;421033;1290;98450;-40
2022/10/22 11:37:37;;;;;;;22.80;14.30;;;;;;;13.08;73.79;98393.27;420967;1298;107057;-41
2022/10/22 11:47:52;;;;;;;21.90;16.50;;;;;;;12.95;73.91;98385.71;421061;1292;97883;-40
2022/10/22 11:57:58;;;;;;;25.80;17.00;;;;;;;12.76;74.08;98383.92;420959;1290;109629;-41
2022/10/22 12:08:03;;;;;;;23.70;15.70;;;;;;;12.75;74.12;98381.89;420708;1297;109276;-40
2022/10/22 12:18:06;;;;;;;26.00;15.80;;;;;;;12.90;74.29;98378.77;420709;1299;98181;-40
2022/10/22 12:28:11;;;;;;;23.30;15.50;;;;;;;12.97;74.39;98377.60;420905;1291;110759;-40
2022/10/22 12:38:19;;;;;;;21.70;15.00;;;;;;;12.95;74.66;98370.30;420874;1289;98194;-39
2022/10/22 12:48:23;;;;;;;27.50;15.40;;;;;;;12.89;74.71;98363.48;421119;1292;97880;-39
2022/10/22 12:58:28;;;;;;;29.40;16.50;;;;;;;12.80;74.86;98358.81;420878;1298;110532;-41
2022/10/22 13:08:34;;;;;;;26.30;16.50;;;;;;;12.82;75.03;98358.69;420537;1298;110231;-40
2022/10/22 13:18:38;;;;;;;30.60;18.10;;;;;;;12.93;75.24;98365.15;420819;1292;97497;-40
2022/10/22 13:28:42;;;;;;;34.70;24.30;;;;;;;12.93;75.29;98365.94;421088;1292;97851;-40
2022/10/22 13:38:46;;;;;;;26.40;17.50;;;;;;;12.94;75.27;98376.78;420812;1298;107090;-40
2022/10/22 13:58:54;;;;;;;33.70;19.20;;;;;;;13.06;75.56;98367.73;420511;1292;477639;-40
2022/10/22 14:09:00;;;;;;;31.50;19.80;;;;;;;13.02;75.60;98372.30;420774;1298;98020;-41
2022/10/22 14:19:18;;;;;;;26.80;18.20;;;;;;;12.94;75.55;98375.83;420808;1292;97873;-41
2022/10/22 14:29:22;;;;;;;31.90;20.00;;;;;;;12.93;75.60;98380.44;420544;1298;109542;-40
2022/10/22 14:39:26;;;;;;;37.20;24.30;;;;;;;12.88;75.80;98377.05;420801;1292;117729;-39
2022/10/22 14:49:30;;;;;;;34.50;21.70;;;;;;;12.78;76.04;98384.80;421025;1292;109321;-40
2022/10/22 14:59:33;;;;;;;57.90;36.30;;;;;;;12.63;76.37;98379.33;420545;1298;108465;-40
2022/10/22 15:09:37;;;;;;;30.50;21.90;;;;;;;12.51;76.68;98372.24;420918;1292;97911;-40
2022/10/22 15:19:42;;;;;;;30.50;22.20;;;;;;;12.43;76.98;98372.85;420714;1298;108235;-41
2022/10/22 15:29:46;;;;;;;34.90;23.10;;;;;;;12.40;77.36;98381.24;420924;1298;97934;-40
2022/10/22 15:39:49;;;;;;;43.90;27.10;;;;;;;12.30;77.47;98378.58;420737;1298;110777;-40
2022/10/22 15:49:53;;;;;;;42.50;28.50;;;;;;;12.23;77.94;98390.10;420585;1298;108573;-41
2022/10/22 15:59:56;;;;;;;41.30;26.70;;;;;;;12.19;78.34;98400.55;421111;1294;97668;-40
2022/10/22 16:10:00;;;;;;;42.30;28.40;;;;;;;12.19;78.64;98411.00;420685;1292;109661;-40
2022/10/22 16:20:06;;;;;;;38.00;27.00;;;;;;;12.15;78.88;98425.63;420875;1298;96646;-39
2022/10/22 16:30:11;;;;;;;43.20;26.90;;;;;;;12.11;79.06;98443.13;420825;1292;110307;-39
2022/10/22 16:40:15;;;;;;;44.50;28.10;;;;;;;12.04;79.30;98454.92;420930;1296;107562;-40
2022/10/22 16:50:20;;;;;;;62.60;36.70;;;;;;;11.93;79.45;98463.20;420960;1286;98153;-40
2022/10/22 17:00:23;;;;;;;51.70;29.50;;;;;;;11.76;79.70;98474.09;420538;1292;108572;-41
2022/10/22 17:10:26;;;;;;;46.50;32.50;;;;;;;11.70;80.15;98483.69;420865;1292;96674;-41
2022/10/22 17:20:31;;;;;;;48.80;32.90;;;;;;;11.72;80.46;98487.74;420661;1292;110189;-41
2022/10/22 17:40:39;;;;;;;38.70;27.90;;;;;;;11.73;80.91;98505.13;420877;1292;97876;-40
2022/10/22 17:50:43;;;;;;;43.60;30.80;;;;;;;11.72;81.25;98505.96;421033;1298;108533;-40
2022/10/22 18:00:54;;;;;;;46.70;29.50;;;;;;;11.77;81.43;98506.63;420953;1291;97912;-40
2022/10/22 18:10:59;;;;;;;41.70;28.40;;;;;;;11.83;81.77;98504.69;420798;1288;109491;-40
2022/10/22 18:21:04;;;;;;;42.40;28.60;;;;;;;11.86;81.85;98507.52;420828;1298;108685;-40
2022/10/22 18:31:07;;;;;;;58.00;38.70;;;;;;;11.91;82.11;98529.77;420804;1291;97994;-41
2022/10/22 18:41:13;;;;;;;61.60;35.50;;;;;;;11.95;82.25;98545.10;420620;1298;106630;-40
2022/10/22 18:51:17;;;;;;;50.70;31.20;;;;;;;11.98;82.53;98544.41;420729;1298;97193;-40
2022/10/22 19:01:23;;;;;;;48.90;31.10;;;;;;;11.98;82.78;98555.55;420766;1298;110688;-40
2022/10/22 19:11:27;;;;;;;53.30;33.40;;;;;;;12.01;83.06;98564.54;421005;1298;107863;-40
2022/10/22 19:21:32;;;;;;;48.00;29.70;;;;;;;12.02;83.53;98574.88;420975;1292;97490;-39
2022/10/22 19:31:35;;;;;;;38.50;26.40;;;;;;;12.05;84.00;98586.50;420952;1297;107245;-40
2022/10/22 19:41:39;;;;;;;36.70;23.20;;;;;;;12.12;84.12;98595.11;420660;1298;97886;-40
2022/10/22 19:51:43;;;;;;;30.60;20.50;;;;;;;12.19;84.37;98607.09;420739;1298;112200;-40
2022/10/22 20:01:47;;;;;;;29.90;20.00;;;;;;;12.26;84.54;98620.34;421099;1298;108339;-40
2022/10/22 20:11:50;;;;;;;32.20;19.40;;;;;;;12.34;84.63;98637.20;420736;1292;98545;-41
2022/10/22 20:22:08;;;;;;;30.20;20.50;;;;;;;12.38;84.89;98638.58;420658;1298;110047;-41
2022/10/22 20:32:13;;;;;;;29.10;21.50;;;;;;;12.42;85.14;98634.40;421011;1299;97534;-40
2022/10/22 20:42:16;;;;;;;29.10;20.30;;;;;;;12.48;85.53;98633.27;420711;1294;110010;-41
2022/10/22 20:52:20;;;;;;;29.30;20.60;;;;;;;12.52;85.63;98648.13;420894;1298;109317;-40
2022/10/22 21:02:24;;;;;;;31.60;19.90;;;;;;;12.58;85.72;98650.53;420837;1298;97490;-40
2022/10/22 21:12:27;;;;;;;36.00;23.90;;;;;;;12.64;85.92;98657.08;421019;1299;107281;-39
2022/10/22 21:22:31;;;;;;;41.20;25.00;;;;;;;12.70;86.08;98658.48;420857;1284;97868;-40
2022/10/22 21:32:34;;;;;;;41.30;24.90;;;;;;;12.73;86.25;98667.17;420640;1292;111530;-40
2022/10/22 21:42:38;;;;;;;33.30;23.20;;;;;;;12.79;86.47;98670.79;421993;1296;108355;-39
2022/10/22 21:52:42;;;;;;;32.20;22.70;;;;;;;12.83;86.48;98677.80;422006;1294;97716;-39
2022/10/22 22:02:45;;;;;;;37.60;22.50;;;;;;;12.87;86.58;98685.98;421661;1289;109306;-39
2022/10/22 22:12:50;;;;;;;39.60;26.00;;;;;;;12.90;86.55;98686.39;421869;1288;97873;-39
2022/10/22 22:22:54;;;;;;;34.30;23.50;;;;;;;12.89;86.88;98692.32;421622;1298;109037;-40
2022/10/22 22:32:57;;;;;;;34.30;22.40;;;;;;;12.92;86.77;98694.70;421776;1298;107816;-39
2022/10/22 22:43:01;;;;;;;30.20;20.40;;;;;;;12.94;86.94;98692.44;421722;1298;97879;-39
2022/10/22 22:53:05;;;;;;;34.30;22.90;;;;;;;12.98;87.11;98707.20;421867;1298;108334;-39
2022/10/22 23:03:08;;;;;;;32.10;20.60;;;;;;;13.02;87.19;98714.91;421942;1295;97886;-40
2022/10/22 23:13:12;;;;;;;29.70;21.40;;;;;;;13.02;87.14;98719.86;422009;1296;109567;-40
2022/10/22 23:23:16;;;;;;;31.60;19.90;;;;;;;13.00;87.13;98723.70;421546;1286;107633;-40
2022/10/22 23:33:19;;;;;;;32.30;20.80;;;;;;;12.93;87.01;98731.17;421949;1287;96718;-40
2022/10/22 23:43:24;;;;;;;23.50;18.70;;;;;;;12.86;86.92;98741.70;421787;1293;107710;-39
2022/10/22 23:53:28;;;;;;;22.90;16.20;;;;;;;12.78;86.92;98755.56;421785;1298;97902;-40
